createdAt,value
2022-11-05T00:00:36.088Z,100778.81
2022-11-05T00:03:21.783Z,100789.25
2022-11-05T00:06:10.655Z,100786.69
2022-11-05T00:08:57.792Z,100776.53
2022-11-05T00:11:44.619Z,100787.69
2022-11-05T00:14:29.956Z,100789.84
2022-11-05T00:16:56.758Z,100795.09
2022-11-05T00:19:23.426Z,100786.72
2022-11-05T00:22:12.046Z,100795.69
2022-11-05T00:24:57.152Z,100789.56
2022-11-05T00:27:23.922Z,100795.81
2022-11-05T00:29:50.663Z,100793.59
2022-11-05T00:32:17.466Z,100798.41
2022-11-05T00:34:44.619Z,100806.16
2022-11-05T00:37:11.334Z,100801.81
2022-11-05T00:39:38.353Z,100806.59
2022-11-05T00:42:23.668Z,100810.19
2022-11-05T00:45:01.024Z,100805.41
2022-11-05T00:47:47.131Z,100798.38
2022-11-05T00:50:14.778Z,100816.81
2022-11-05T00:52:57.092Z,100809.19
2022-11-05T00:55:28.596Z,100808.53
2022-11-05T00:57:57.532Z,100814.78
2022-11-05T01:00:28.055Z,100802.56
2022-11-05T01:02:59.202Z,100817.09
2022-11-05T01:05:26.444Z,100812.31
2022-11-05T01:07:53.347Z,100826.41
2022-11-05T01:10:21.473Z,100836.00
2022-11-05T01:12:48.633Z,100835.28
2022-11-05T01:15:17.061Z,100838.97
2022-11-05T01:17:46.914Z,100839.41
2022-11-05T01:20:14.932Z,100840.59
2022-11-05T01:22:41.585Z,100840.75
2022-11-05T01:25:11.224Z,100858.28
2022-11-05T01:27:38.741Z,100860.81
2022-11-05T01:30:08.155Z,100856.56
2022-11-05T01:32:37.031Z,100840.94
2022-11-05T01:35:06.360Z,100861.19
2022-11-05T01:37:35.151Z,100865.41
2022-11-05T01:40:02.506Z,100868.41
2022-11-05T01:42:32.741Z,100877.75
2022-11-05T01:45:01.207Z,100882.00
2022-11-05T01:48:06.711Z,100881.06
2022-11-05T01:50:43.274Z,100884.72
2022-11-05T01:53:21.792Z,100878.00
2022-11-05T01:56:23.683Z,100881.56
2022-11-05T01:59:03.453Z,100885.81
2022-11-05T02:01:30.384Z,100881.88
2022-11-05T02:04:02.841Z,100886.75
2022-11-05T02:06:32.620Z,100887.44
2022-11-05T02:09:08.874Z,100899.19
2022-11-05T02:11:35.664Z,100904.81
2022-11-05T02:14:02.693Z,100888.53
2022-11-05T02:16:35.446Z,100896.78
2022-11-05T02:19:41.002Z,100895.16
2022-11-05T02:22:57.231Z,100904.16
2022-11-05T02:26:04.100Z,100896.03
2022-11-05T02:28:51.932Z,100898.91
2022-11-05T02:31:35.026Z,100902.69
2022-11-05T02:34:29.227Z,100908.03
2022-11-05T02:37:34.443Z,100908.00
2022-11-05T02:40:16.797Z,100910.28
2022-11-05T02:42:58.614Z,100912.78
2022-11-05T02:45:40.304Z,100908.31
2022-11-05T02:49:05.775Z,100913.13
2022-11-05T02:51:39.496Z,100924.34
2022-11-05T02:54:25.201Z,100926.00
2022-11-05T02:56:54.941Z,100925.75
2022-11-05T02:59:21.662Z,100919.97
2022-11-05T03:01:50.397Z,100924.34
2022-11-05T03:04:21.334Z,100940.94
2022-11-05T03:07:39.415Z,100948.53
2022-11-05T03:10:25.323Z,100938.31
2022-11-05T03:13:16.877Z,100955.91
2022-11-05T03:15:58.293Z,100963.72
2022-11-05T03:18:58.475Z,100950.31
2022-11-05T03:21:36.058Z,100963.94
2022-11-05T03:24:19.028Z,100945.44
2022-11-05T03:27:03.972Z,100972.00
2022-11-05T03:29:38.439Z,100968.91
2022-11-05T03:32:08.089Z,100952.16
2022-11-05T03:34:52.986Z,100977.72
2022-11-05T03:37:21.482Z,100981.56
2022-11-05T03:39:55.946Z,100981.47
2022-11-05T03:42:28.770Z,100991.25
2022-11-05T03:45:00.654Z,100990.25
2022-11-05T03:47:38.334Z,100992.97
2022-11-05T03:50:09.874Z,100993.13
2022-11-05T03:52:53.741Z,100984.63
2022-11-05T03:55:31.136Z,100991.50
2022-11-05T03:57:59.058Z,100981.66
2022-11-05T04:00:25.957Z,100992.97
2022-11-05T04:02:52.834Z,100997.81
2022-11-05T04:05:19.781Z,100985.81
2022-11-05T04:08:07.673Z,101006.56
2022-11-05T04:10:57.132Z,101011.75
2022-11-05T04:13:26.723Z,101027.00
2022-11-05T04:16:14.919Z,101030.44
2022-11-05T04:18:43.060Z,101006.91
2022-11-05T04:21:30.180Z,101024.00
2022-11-05T04:24:09.919Z,101018.31
2022-11-05T04:26:43.949Z,101019.81
2022-11-05T04:29:29.668Z,101016.09
2022-11-05T04:31:57.257Z,101020.56
2022-11-05T04:34:24.097Z,101030.56
2022-11-05T04:36:52.144Z,101025.09
2022-11-05T04:39:20.520Z,101033.38
2022-11-05T04:41:50.222Z,101036.50
2022-11-05T04:44:17.220Z,101030.03
2022-11-05T04:46:44.380Z,101041.72
2022-11-05T04:49:11.089Z,101031.47
2022-11-05T04:51:37.792Z,101034.56
2022-11-05T04:54:04.617Z,101034.91
2022-11-05T04:56:31.552Z,101053.19
2022-11-05T04:58:58.326Z,101061.66
2022-11-05T05:01:25.744Z,101048.97
2022-11-05T05:03:54.291Z,101053.13
2022-11-05T05:06:22.514Z,101053.03
2022-11-05T05:08:51.431Z,101053.78
2022-11-05T05:11:21.520Z,101041.09
2022-11-05T05:13:49.900Z,101042.47
2022-11-05T05:16:23.163Z,101048.91
2022-11-05T05:18:51.046Z,101047.50
2022-11-05T05:21:38.550Z,101051.25
2022-11-05T05:24:15.866Z,101051.41
2022-11-05T05:26:50.926Z,101051.38
2022-11-05T05:29:18.904Z,101044.94
2022-11-05T05:31:45.681Z,101052.88
2022-11-05T05:34:14.006Z,101069.34
2022-11-05T05:36:40.752Z,101073.81
2022-11-05T05:39:11.037Z,101076.84
2022-11-05T05:41:38.463Z,101081.94
2022-11-05T05:44:06.741Z,101081.75
2022-11-05T05:46:33.836Z,101076.56
2022-11-05T05:49:00.821Z,101094.34
2022-11-05T05:51:27.723Z,101096.75
2022-11-05T05:53:55.194Z,101082.34
2022-11-05T05:56:22.152Z,101092.16
2022-11-05T05:58:48.927Z,101104.13
2022-11-05T06:01:19.695Z,101094.03
2022-11-05T06:03:48.476Z,101110.66
2022-11-05T06:06:21.104Z,101111.72
2022-11-05T06:08:48.882Z,101115.06
2022-11-05T06:11:15.766Z,101119.66
2022-11-05T06:13:42.657Z,101131.31
2022-11-05T06:16:10.431Z,101129.75
2022-11-05T06:18:37.945Z,101124.03
2022-11-05T06:21:08.059Z,101127.53
2022-11-05T06:23:37.058Z,101123.91
2022-11-05T06:26:07.450Z,101139.72
2022-11-05T06:28:34.493Z,101142.72
2022-11-05T06:31:01.825Z,101148.34
2022-11-05T06:33:29.288Z,101150.63
2022-11-05T06:35:59.739Z,101140.22
2022-11-05T06:38:26.602Z,101158.03
2022-11-05T06:40:53.279Z,101167.16
2022-11-05T06:43:20.195Z,101161.72
2022-11-05T06:45:46.903Z,101168.00
2022-11-05T06:48:13.622Z,101172.34
2022-11-05T06:50:45.214Z,101187.47
2022-11-05T06:53:12.945Z,101176.84
2022-11-05T06:55:40.272Z,101170.72
2022-11-05T06:58:07.390Z,101177.59
2022-11-05T07:00:34.369Z,101186.16
2022-11-05T07:03:10.467Z,101174.44
2022-11-05T07:05:42.986Z,101195.16
2022-11-05T07:08:09.846Z,101196.84
2022-11-05T07:10:36.534Z,101204.88
2022-11-05T07:13:07.793Z,101205.38
2022-11-05T07:15:36.485Z,101203.28
2022-11-05T07:18:03.925Z,101214.31
2022-11-05T07:20:33.933Z,101218.91
2022-11-05T07:23:11.341Z,101211.88
2022-11-05T07:25:39.118Z,101219.97
2022-11-05T07:28:06.414Z,101223.06
2022-11-05T07:30:34.612Z,101215.69
2022-11-05T07:33:02.414Z,101219.31
2022-11-05T07:35:29.397Z,101228.91
2022-11-05T07:37:56.410Z,101236.84
2022-11-05T07:40:26.679Z,101227.25
2022-11-05T07:42:59.654Z,101239.50
2022-11-05T07:45:29.349Z,101232.09
2022-11-05T07:48:02.449Z,101237.16
2022-11-05T07:50:32.481Z,101255.72
2022-11-05T07:53:09.880Z,101255.50
2022-11-05T07:55:40.302Z,101256.13
2022-11-05T07:58:07.355Z,101255.50
2022-11-05T08:00:34.485Z,101241.78
2022-11-05T08:03:18.764Z,101260.56
2022-11-05T08:05:47.670Z,101270.38
2022-11-05T08:08:17.577Z,101263.44
2022-11-05T08:10:44.875Z,101264.97
2022-11-05T08:13:15.062Z,101254.59
2022-11-05T08:15:43.031Z,101265.19
2022-11-05T08:18:17.959Z,101258.78
2022-11-05T08:20:46.735Z,101266.19
2022-11-05T08:23:14.407Z,101253.06
2022-11-05T08:25:41.951Z,101255.56
2022-11-05T08:28:12.801Z,101254.31
2022-11-05T08:30:40.232Z,101262.34
2022-11-05T08:33:11.819Z,101285.72
2022-11-05T08:35:40.011Z,101282.88
2022-11-05T08:38:10.460Z,101279.56
2022-11-05T08:40:37.963Z,101274.16
2022-11-05T08:43:07.592Z,101283.88
2022-11-05T08:45:38.355Z,101282.09
2022-11-05T08:48:16.746Z,101289.00
2022-11-05T08:50:45.553Z,101291.56
2022-11-05T08:53:13.476Z,101293.59
2022-11-05T08:55:40.765Z,101287.63
2022-11-05T08:58:17.716Z,101303.22
2022-11-05T09:00:49.800Z,101286.56
2022-11-05T09:03:17.818Z,101310.44
2022-11-05T09:05:44.808Z,101298.25
2022-11-05T09:08:15.098Z,101305.47
2022-11-05T09:10:42.973Z,101300.47
2022-11-05T09:13:16.590Z,101311.22
2022-11-05T09:15:46.597Z,101296.72
2022-11-05T09:18:14.900Z,101307.91
2022-11-05T09:20:42.931Z,101321.38
2022-11-05T09:23:12.110Z,101320.75
2022-11-05T09:25:39.166Z,101301.47
2022-11-05T09:28:21.473Z,101333.78
2022-11-05T09:30:52.116Z,101317.66
2022-11-05T09:33:22.816Z,101334.50
2022-11-05T09:35:51.647Z,101334.28
2022-11-05T09:38:18.542Z,101323.81
2022-11-05T09:41:06.133Z,101343.50
2022-11-05T09:43:40.766Z,101345.19
2022-11-05T09:46:26.644Z,101340.16
2022-11-05T09:49:07.804Z,101328.69
2022-11-05T09:51:36.699Z,101342.78
2022-11-05T09:54:05.475Z,101346.91
2022-11-05T09:56:37.144Z,101344.53
2022-11-05T09:59:19.529Z,101331.88
2022-11-05T10:01:47.816Z,101337.97
2022-11-05T10:04:26.924Z,101329.47
2022-11-05T10:07:05.315Z,101346.25
2022-11-05T10:09:45.285Z,101349.97
2022-11-05T10:12:46.791Z,101353.56
2022-11-05T10:15:27.029Z,101360.59
2022-11-05T10:18:24.530Z,101357.56
2022-11-05T10:20:51.361Z,101363.38
2022-11-05T10:23:21.736Z,101362.50
2022-11-05T10:26:08.019Z,101358.13
2022-11-05T10:28:36.308Z,101359.41
2022-11-05T10:31:14.040Z,101354.25
2022-11-05T10:33:47.937Z,101373.16
2022-11-05T10:36:36.544Z,101371.19
2022-11-05T10:39:19.551Z,101394.28
2022-11-05T10:42:32.293Z,101383.91
2022-11-05T10:45:13.943Z,101386.75
2022-11-05T10:48:16.581Z,101387.06
2022-11-05T10:50:44.577Z,101386.50
2022-11-05T10:53:15.235Z,101380.78
2022-11-05T10:55:46.631Z,101386.63
2022-11-05T10:58:13.226Z,101387.84
2022-11-05T11:00:40.736Z,101378.22
2022-11-05T11:03:29.978Z,101388.94
2022-11-05T11:06:07.622Z,101380.19
2022-11-05T11:08:36.745Z,101379.31
2022-11-05T11:11:10.112Z,101395.69
2022-11-05T11:14:02.560Z,101393.00
2022-11-05T11:16:37.685Z,101393.19
2022-11-05T11:19:21.741Z,101385.59
2022-11-05T11:22:12.632Z,101396.69
2022-11-05T11:24:53.783Z,101384.63
2022-11-05T11:27:34.176Z,101384.19
2022-11-05T11:30:03.881Z,101379.00
2022-11-05T11:32:39.830Z,101359.06
2022-11-05T11:35:18.954Z,101388.19
2022-11-05T11:37:46.709Z,101379.06
2022-11-05T11:40:19.675Z,101390.41
2022-11-05T11:42:52.367Z,101389.47
2022-11-05T11:45:28.685Z,101385.38
2022-11-05T11:47:57.822Z,101382.41
2022-11-05T11:50:43.686Z,101370.84
2022-11-05T11:53:26.979Z,101378.13
2022-11-05T11:56:13.908Z,101377.44
2022-11-05T11:58:55.899Z,101384.38
2022-11-05T12:01:37.799Z,101370.44
2022-11-05T12:04:16.874Z,101372.69
2022-11-05T12:06:55.552Z,101377.06
2022-11-05T12:09:57.840Z,101345.56
2022-11-05T12:12:51.526Z,101375.78
2022-11-05T12:15:59.597Z,101373.56
2022-11-05T12:18:47.669Z,101380.72
2022-11-05T12:21:53.000Z,101390.41
2022-11-05T12:25:08.175Z,101382.69
2022-11-05T12:28:02.423Z,101370.63
2022-11-05T12:30:56.858Z,101379.31
2022-11-05T12:34:08.261Z,101369.31
2022-11-05T12:37:12.796Z,101378.38
2022-11-05T12:40:09.398Z,101373.78
2022-11-05T12:43:11.913Z,101364.81
2022-11-05T12:46:05.540Z,101375.25
2022-11-05T12:49:02.386Z,101373.81
2022-11-05T12:51:53.855Z,101378.19
2022-11-05T12:54:35.557Z,101375.09
2022-11-05T12:57:04.071Z,101378.25
2022-11-05T12:59:49.009Z,101378.59
2022-11-05T13:02:46.355Z,101375.38
2022-11-05T13:05:18.778Z,101372.72
2022-11-05T13:07:59.655Z,101369.16
2022-11-05T13:10:54.669Z,101381.25
2022-11-05T13:13:33.735Z,101384.91
2022-11-05T13:16:16.901Z,101379.19
2022-11-05T13:18:52.424Z,101365.34
2022-11-05T13:21:24.124Z,101376.16
2022-11-05T13:24:36.210Z,101369.31
2022-11-05T13:27:15.792Z,101382.22
2022-11-05T13:29:53.041Z,101365.81
2022-11-05T13:32:28.050Z,101376.59
2022-11-05T13:35:02.153Z,101369.31
2022-11-05T13:37:53.572Z,101368.56
2022-11-05T13:40:29.143Z,101366.00
2022-11-05T13:43:14.662Z,101382.16
2022-11-05T13:46:06.411Z,101356.81
2022-11-05T13:49:18.691Z,101386.56
2022-11-05T13:51:52.512Z,101385.97
2022-11-05T13:54:50.028Z,101397.50
2022-11-05T13:57:53.780Z,101396.53
2022-11-05T14:00:24.347Z,101403.22
2022-11-05T14:03:05.805Z,101398.19
2022-11-05T14:05:40.104Z,101395.84
2022-11-05T14:08:19.989Z,101389.44
2022-11-05T14:11:06.579Z,101400.22
2022-11-05T14:13:43.847Z,101385.38
2022-11-05T14:16:19.849Z,101387.56
2022-11-05T14:19:13.838Z,101388.75
2022-11-05T14:21:57.192Z,101392.56
2022-11-05T14:24:27.003Z,101403.91
2022-11-05T14:27:02.501Z,101404.81
2022-11-05T14:29:46.979Z,101401.47
2022-11-05T14:32:19.898Z,101406.59
2022-11-05T14:35:17.672Z,101402.31
2022-11-05T14:37:59.155Z,101401.06
2022-11-05T14:40:38.088Z,101393.56
2022-11-05T14:43:14.232Z,101396.47
2022-11-05T14:46:08.300Z,101408.09
2022-11-05T14:48:41.253Z,101405.31
2022-11-05T14:51:31.749Z,101410.66
2022-11-05T14:54:05.508Z,101413.16
2022-11-05T14:57:02.541Z,101417.31
2022-11-05T14:59:31.304Z,101417.06
2022-11-05T15:02:00.740Z,101421.41
2022-11-05T15:04:36.151Z,101419.47
2022-11-05T15:07:02.930Z,101425.00
2022-11-05T15:09:44.726Z,101432.00
2022-11-05T15:12:24.226Z,101400.28
2022-11-05T15:14:59.561Z,101425.38
2022-11-05T15:17:51.166Z,101433.81
2022-11-05T15:20:23.874Z,101430.84
2022-11-05T15:23:00.479Z,101422.13
2022-11-05T15:25:54.802Z,101430.75
2022-11-05T15:28:38.491Z,101434.56
2022-11-05T15:31:21.130Z,101437.25
2022-11-05T15:33:48.201Z,101434.44
2022-11-05T15:36:23.572Z,101442.72
2022-11-05T15:39:15.067Z,101442.69
2022-11-05T15:41:38.343Z,101445.19
2022-11-05T15:44:05.151Z,101449.31
2022-11-05T15:46:32.094Z,101451.69
2022-11-05T15:49:06.747Z,101455.34
2022-11-05T15:51:35.518Z,101471.81
2022-11-05T15:56:56.605Z,101469.59
2022-11-05T15:59:26.267Z,101463.75
2022-11-05T16:02:31.919Z,101465.16
2022-11-05T16:05:00.202Z,101468.44
2022-11-05T16:07:28.188Z,101470.34
2022-11-05T16:10:00.549Z,101467.22
2022-11-05T16:12:36.710Z,101475.66
2022-11-05T16:15:20.539Z,101475.56
2022-11-05T16:17:59.650Z,101475.50
2022-11-05T16:20:35.740Z,101481.28
2022-11-05T16:23:23.567Z,101481.13
2022-11-05T16:25:51.089Z,101488.78
2022-11-05T16:28:29.248Z,101475.00
2022-11-05T16:31:04.620Z,101487.59
2022-11-05T16:33:44.727Z,101475.22
2022-11-05T16:36:12.047Z,101484.72
2022-11-05T16:38:38.923Z,101480.69
2022-11-05T16:41:05.850Z,101481.22
2022-11-05T16:43:33.571Z,101495.34
2022-11-05T16:46:01.700Z,101493.75
2022-11-05T16:48:28.759Z,101499.81
2022-11-05T16:50:55.570Z,101500.00
2022-11-05T16:53:22.379Z,101491.38
2022-11-05T16:55:49.778Z,101505.44
2022-11-05T16:58:25.831Z,101502.41
2022-11-05T17:01:07.788Z,101513.31
2022-11-05T17:03:34.644Z,101508.13
2022-11-05T17:06:01.489Z,101511.38
2022-11-05T17:08:29.537Z,101513.75
2022-11-05T17:10:56.382Z,101522.63
2022-11-05T17:13:23.177Z,101523.75
2022-11-05T17:15:51.167Z,101519.81
2022-11-05T17:18:19.332Z,101515.94
2022-11-05T17:20:53.142Z,101524.53
2022-11-05T17:23:22.986Z,101523.03
2022-11-05T17:25:54.432Z,101522.28
2022-11-05T17:28:22.065Z,101522.66
2022-11-05T17:30:52.762Z,101523.59
2022-11-05T17:33:22.629Z,101526.88
2022-11-05T17:35:51.702Z,101525.59
2022-11-05T17:38:19.194Z,101522.66
2022-11-05T17:40:46.125Z,101531.56
2022-11-05T17:43:13.175Z,101536.00
2022-11-05T17:45:57.545Z,101534.97
2022-11-05T17:48:26.848Z,101500.09
2022-11-05T17:50:53.537Z,101530.13
2022-11-05T17:53:20.557Z,101527.84
2022-11-05T17:55:48.215Z,101536.16
2022-11-05T17:58:15.600Z,101525.97
2022-11-05T18:00:44.187Z,101547.28
2022-11-05T18:03:12.847Z,101526.53
2022-11-05T18:05:41.204Z,101543.41
2022-11-05T18:08:09.516Z,101535.97
2022-11-05T18:10:37.888Z,101519.25
2022-11-05T18:13:05.504Z,101525.13
2022-11-05T18:15:32.533Z,101527.09
2022-11-05T18:17:59.237Z,101535.53
2022-11-05T18:20:26.009Z,101531.00
2022-11-05T18:22:52.894Z,101541.41
2022-11-05T18:25:19.726Z,101536.59
2022-11-05T18:27:46.505Z,101522.00
2022-11-05T18:30:15.460Z,101541.50
2022-11-05T18:32:44.483Z,101541.22
2022-11-05T18:35:13.257Z,101546.66
2022-11-05T18:37:40.685Z,101528.47
2022-11-05T18:40:08.651Z,101556.28
2022-11-05T18:42:35.445Z,101546.72
2022-11-05T18:45:02.187Z,101532.22
2022-11-05T18:47:29.038Z,101544.13
2022-11-05T18:49:55.752Z,101550.41
2022-11-05T18:52:22.875Z,101547.63
2022-11-05T18:54:49.588Z,101543.97
2022-11-05T18:57:16.283Z,101545.97
2022-11-05T18:59:46.640Z,101549.91
2022-11-05T19:02:14.669Z,101539.56
2022-11-05T19:05:00.345Z,101538.38
2022-11-05T19:07:28.925Z,101538.44
2022-11-05T19:09:55.726Z,101535.94
2022-11-05T19:12:22.450Z,101535.53
2022-11-05T19:14:49.125Z,101515.03
2022-11-05T19:17:15.841Z,101548.69
2022-11-05T19:19:42.546Z,101536.91
2022-11-05T19:22:10.230Z,101535.59
2022-11-05T19:24:36.997Z,101533.75
2022-11-05T19:27:04.123Z,101525.00
2022-11-05T19:29:30.915Z,101534.75
2022-11-05T19:31:57.675Z,101519.47
2022-11-05T19:34:24.421Z,101522.41
2022-11-05T19:36:51.178Z,101524.53
2022-11-05T19:39:18.232Z,101522.13
2022-11-05T19:41:44.899Z,101529.53
2022-11-05T19:44:11.659Z,101529.03
2022-11-05T19:46:38.692Z,101534.94
2022-11-05T19:49:05.445Z,101525.81
2022-11-05T19:51:33.023Z,101534.25
2022-11-05T19:54:01.814Z,101525.41
2022-11-05T19:56:32.570Z,101533.66
2022-11-05T19:59:00.632Z,101531.38
2022-11-05T20:01:29.114Z,101536.00
2022-11-05T20:03:57.857Z,101547.91
2022-11-05T20:06:31.792Z,101547.94
2022-11-05T20:11:54.404Z,101548.47
2022-11-05T20:14:21.918Z,101548.69
2022-11-05T20:16:49.788Z,101557.38
2022-11-05T20:19:19.624Z,101561.41
2022-11-05T20:21:47.022Z,101558.34
2022-11-05T20:24:23.698Z,101559.59
2022-11-05T20:26:52.509Z,101555.28
2022-11-05T20:29:19.300Z,101551.06
2022-11-05T20:31:46.325Z,101527.00
2022-11-05T20:34:13.111Z,101554.97
2022-11-05T20:36:39.938Z,101544.44
2022-11-05T20:39:06.988Z,101546.41
2022-11-05T20:41:33.784Z,101549.63
2022-11-05T20:44:00.468Z,101541.31
2022-11-05T20:46:27.413Z,101556.22
2022-11-05T20:48:54.439Z,101552.88
2022-11-05T20:51:24.297Z,101549.69
2022-11-05T20:53:59.825Z,101541.19
2022-11-05T20:56:32.879Z,101558.25
2022-11-05T20:59:00.469Z,101557.34
2022-11-05T21:01:30.307Z,101556.88
2022-11-05T21:03:57.800Z,101555.66
2022-11-05T21:06:24.563Z,101566.06
2022-11-05T21:08:52.460Z,101560.47
2022-11-05T21:11:20.312Z,101556.88
2022-11-05T21:13:47.700Z,101555.91
2022-11-05T21:16:18.700Z,101545.09
2022-11-05T21:18:46.516Z,101567.44
2022-11-05T21:21:19.947Z,101554.53
2022-11-05T21:23:47.302Z,101556.91
2022-11-05T21:26:16.717Z,101580.53
2022-11-05T21:28:43.905Z,101567.31
2022-11-05T21:31:10.952Z,101555.16
2022-11-05T21:33:38.076Z,101567.00
2022-11-05T21:36:11.554Z,101570.13
2022-11-05T21:38:39.437Z,101570.13
2022-11-05T21:41:07.175Z,101567.09
2022-11-05T21:43:34.524Z,101566.78
2022-11-05T21:46:02.943Z,101553.97
2022-11-05T21:48:30.545Z,101555.81
2022-11-05T21:51:15.774Z,101561.72
2022-11-05T21:54:01.174Z,101563.09
2022-11-05T21:56:47.609Z,101559.97
2022-11-05T21:59:38.980Z,101562.72
2022-11-05T22:02:07.466Z,101571.97
2022-11-05T22:04:37.850Z,101576.34
2022-11-05T22:07:06.730Z,101569.22
2022-11-05T22:09:34.122Z,101562.16
2022-11-05T22:12:01.507Z,101562.34
2022-11-05T22:14:28.433Z,101557.56
2022-11-05T22:16:55.758Z,101557.19
2022-11-05T22:19:23.358Z,101564.22
2022-11-05T22:21:50.247Z,101561.66
2022-11-05T22:24:17.712Z,101558.41
2022-11-05T22:26:45.300Z,101558.09
2022-11-05T22:29:12.863Z,101558.00
2022-11-05T22:31:39.932Z,101563.97
2022-11-05T22:34:07.566Z,101555.34
2022-11-05T22:36:35.574Z,101556.34
2022-11-05T22:39:02.712Z,101538.59
2022-11-05T22:41:29.489Z,101540.97
2022-11-05T22:43:56.773Z,101550.06
2022-11-05T22:46:26.351Z,101535.88
2022-11-05T22:48:53.955Z,101541.59
2022-11-05T22:51:25.659Z,101547.28
2022-11-05T22:53:54.708Z,101486.81
2022-11-05T22:56:25.299Z,101546.72
2022-11-05T22:58:52.372Z,101550.88
2022-11-05T23:01:21.131Z,101544.03
2022-11-05T23:03:50.148Z,101551.88
2022-11-05T23:06:50.033Z,101540.78
2022-11-05T23:09:42.882Z,101551.50
2022-11-05T23:12:26.484Z,101555.25
2022-11-05T23:14:55.387Z,101550.44
2022-11-05T23:17:40.747Z,101558.25
2022-11-05T23:20:35.077Z,101554.19
2022-11-05T23:23:20.302Z,101552.78
2022-11-05T23:25:47.414Z,101549.97
2022-11-05T23:28:14.759Z,101544.75
2022-11-05T23:31:04.260Z,101529.72
2022-11-05T23:33:35.787Z,101538.50
2022-11-05T23:36:38.240Z,101540.81
2022-11-05T23:39:04.942Z,101541.38
2022-11-05T23:41:50.433Z,101538.91
2022-11-05T23:44:36.526Z,101544.81
2022-11-05T23:47:21.896Z,101540.56
2022-11-05T23:49:48.610Z,101533.81
2022-11-05T23:52:15.261Z,101532.09
2022-11-05T23:54:42.165Z,101522.88
2022-11-05T23:57:08.885Z,101486.75
2022-11-05T23:59:35.676Z,101528.22
